Time;durP1;ratioP1;P1;durP2;ratioP2;P2;SDS_P1;SDS_P2;PMS_P1;PMS_P2;Temp;Humidity;BMP_temperature;BMP_pressure;BME280_temperature;BME280_humidity;BME280_pressure;Samples;Min_cycle;Max_cycle;Signal;HPM_P1;HPM_P2
2023/01/29 00:00:21;;;;;;;1.30;1.02;;;-0.20;99.90;;;;;;5128533;27;20197;-68
2023/01/29 00:02:48;;;;;;;0.98;0.93;;;-0.10;99.90;;;;;;5127752;27;20203;-68
2023/01/29 00:05:16;;;;;;;0.88;0.88;;;-0.10;99.90;;;;;;5128574;27;20197;-68
2023/01/29 00:07:43;;;;;;;1.35;1.25;;;-0.10;99.90;;;;;;5128882;27;20728;-68
2023/01/29 00:10:11;;;;;;;1.58;1.08;;;-0.10;99.90;;;;;;5128276;27;20296;-68
2023/01/29 00:12:38;;;;;;;2.85;1.10;;;0.00;99.90;;;;;;5128508;27;20223;-69
2023/01/29 00:15:05;;;;;;;1.83;1.73;;;0.00;99.90;;;;;;5128341;27;20197;-69
2023/01/29 00:17:32;;;;;;;1.05;1.05;;;0.00;99.90;;;;;;5127296;27;20221;-68
2023/01/29 00:19:59;;;;;;;2.08;1.63;;;0.00;99.90;;;;;;5127740;27;20199;-68
2023/01/29 00:22:29;;;;;;;1.17;1.13;;;-0.10;99.90;;;;;;5128266;27;20308;-68
2023/01/29 00:24:56;;;;;;;0.40;0.40;;;-0.10;99.90;;;;;;5127796;27;20666;-68
2023/01/29 00:27:23;;;;;;;0.98;0.98;;;0.00;99.90;;;;;;5128182;27;20278;-69
2023/01/29 00:30:08;;;;;;;1.05;1.05;;;0.00;99.90;;;;;;5126921;27;20198;-70
2023/01/29 00:32:35;;;;;;;1.00;1.00;;;0.10;99.90;;;;;;5128040;27;20278;-69
2023/01/29 00:35:01;;;;;;;1.20;1.10;;;0.20;99.90;;;;;;5128355;27;20205;-68
2023/01/29 00:37:30;;;;;;;0.93;0.93;;;0.40;99.90;;;;;;5123880;27;20217;-69
2023/01/29 00:39:57;;;;;;;0.40;0.40;;;0.20;99.90;;;;;;5116033;27;20202;-68
2023/01/29 00:45:10;;;;;;;0.68;0.68;;;0.20;99.90;;;;;;5128159;28;20205;-68
2023/01/29 00:47:36;;;;;;;2.25;2.15;;;0.10;99.90;;;;;;5109246;28;20236;-68
2023/01/29 00:50:06;;;;;;;0.77;0.77;;;-0.10;99.90;;;;;;5107573;28;20216;-69
2023/01/29 00:52:35;;;;;;;2.80;1.65;;;0.20;99.90;;;;;;5108470;28;20224;-69
2023/01/29 00:55:03;;;;;;;0.60;0.60;;;-0.10;99.90;;;;;;5107624;28;20206;-68
2023/01/29 00:57:31;;;;;;;1.60;0.77;;;-0.10;99.90;;;;;;5108733;28;20196;-68
2023/01/29 00:59:58;;;;;;;2.20;0.90;;;-0.10;99.90;;;;;;5107388;28;20293;-67
2023/01/29 01:05:12;;;;;;;0.50;0.50;;;0.00;99.90;;;;;;5127559;28;20273;-68
2023/01/29 01:07:41;;;;;;;2.90;2.10;;;0.00;99.90;;;;;;5121580;28;20190;-68
2023/01/29 01:10:23;;;;;;;1.02;1.02;;;-0.10;99.90;;;;;;5107220;28;20205;-68
2023/01/29 01:12:53;;;;;;;0.40;0.40;;;-0.10;99.90;;;;;;5107222;28;20227;-70
2023/01/29 01:15:21;;;;;;;0.55;0.55;;;-0.10;99.90;;;;;;5107260;28;20315;-68
2023/01/29 01:17:48;;;;;;;1.13;1.05;;;-0.10;99.90;;;;;;5127145;28;20198;-68
2023/01/29 01:20:15;;;;;;;0.65;0.65;;;-0.10;99.90;;;;;;5127201;28;20254;-68
2023/01/29 01:22:43;;;;;;;3.08;1.73;;;-0.10;99.90;;;;;;5128006;28;20238;-68
2023/01/29 01:25:10;;;;;;;1.50;1.02;;;-0.20;99.90;;;;;;5127573;28;20217;-68
2023/01/29 01:27:39;;;;;;;1.35;1.23;;;-0.30;99.90;;;;;;5127520;28;20659;-68
2023/01/29 01:30:09;;;;;;;1.23;1.10;;;-0.30;99.90;;;;;;5126880;28;20212;-69
2023/01/29 01:32:36;;;;;;;1.45;1.35;;;-0.20;99.90;;;;;;5126705;28;20220;-67
2023/01/29 01:35:03;;;;;;;2.15;1.35;;;-0.20;99.90;;;;;;5127950;28;20208;-69
2023/01/29 01:37:30;;;;;;;1.23;1.05;;;-0.10;99.90;;;;;;5123265;28;20193;-69
2023/01/29 01:39:58;;;;;;;1.00;0.93;;;0.00;99.90;;;;;;5118775;27;20193;-67
2023/01/29 01:42:29;;;;;;;1.02;0.80;;;0.00;99.90;;;;;;5127186;27;20808;-68
2023/01/29 01:45:03;;;;;;;0.50;0.45;;;0.10;99.90;;;;;;5130974;27;20193;-69
2023/01/29 01:47:38;;;;;;;2.45;2.13;;;0.00;99.90;;;;;;5127506;27;20208;-68
2023/01/29 01:50:09;;;;;;;1.00;1.00;;;-0.50;99.90;;;;;;5130702;27;20212;-70
2023/01/29 01:52:40;;;;;;;0.88;0.88;;;0.10;99.90;;;;;;5130064;27;20305;-68
2023/01/29 01:55:12;;;;;;;0.93;0.93;;;0.10;99.90;;;;;;5117803;27;20204;-68
2023/01/29 01:57:39;;;;;;;0.68;0.50;;;0.00;99.80;;;;;;5121156;27;20198;-68
2023/01/29 02:00:10;;;;;;;2.67;1.30;;;-0.10;99.90;;;;;;5130051;27;20203;-67
2023/01/29 02:10:57;;;;;;;1.63;1.00;;;-0.40;99.90;;;;;;5110145;28;20718;-68
2023/01/29 02:13:24;;;;;;;2.05;1.55;;;-0.40;99.90;;;;;;5121757;27;20224;-68
2023/01/29 02:15:52;;;;;;;0.30;0.30;;;-0.40;99.90;;;;;;5130599;27;20256;-68
2023/01/29 02:18:21;;;;;;;1.95;1.85;;;-0.20;99.90;;;;;;5114309;27;20747;-68
2023/01/29 02:21:04;;;;;;;0.40;0.40;;;-0.30;99.90;;;;;;5113160;27;20218;-68
2023/01/29 02:24:16;;;;;;;0.80;0.80;;;-0.30;99.90;;;;;;5131003;27;20213;-69
2023/01/29 02:26:58;;;;;;;2.42;2.28;;;-0.30;99.90;;;;;;5094569;27;20229;-69
2023/01/29 02:29:34;;;;;;;2.65;1.75;;;-0.30;99.90;;;;;;5129768;27;20606;-68
2023/01/29 02:32:16;;;;;;;1.52;1.42;;;-0.20;99.90;;;;;;5121499;27;20220;-68
2023/01/29 02:37:45;;;;;;;0.82;0.82;;;-0.30;99.90;;;;;;5121247;27;20217;-69
2023/01/29 02:40:20;;;;;;;0.82;0.73;;;0.40;99.90;;;;;;5121566;27;20199;-68
2023/01/29 02:42:54;;;;;;;1.38;1.38;;;-0.30;99.90;;;;;;5116413;27;20197;-69
2023/01/29 02:45:32;;;;;;;2.25;1.67;;;-0.40;99.90;;;;;;5129934;27;20201;-69
2023/01/29 02:48:01;;;;;;;1.10;0.88;;;-0.30;99.90;;;;;;5118227;27;20280;-68
2023/01/29 02:50:37;;;;;;;0.80;0.80;;;-0.40;99.90;;;;;;5130374;27;20228;-69
2023/01/29 02:53:13;;;;;;;2.38;1.35;;;-0.40;99.90;;;;;;5129237;27;20273;-69
2023/01/29 02:55:46;;;;;;;0.40;0.40;;;-0.30;99.70;;;;;;5127485;27;20227;-68
2023/01/29 02:58:21;;;;;;;1.15;1.15;;;-0.30;99.90;;;;;;5112046;27;20202;-68
2023/01/29 03:00:51;;;;;;;1.30;0.95;;;-0.20;99.90;;;;;;5109569;28;20574;-67
2023/01/29 03:03:23;;;;;;;1.33;1.23;;;-0.30;99.50;;;;;;5118785;27;20202;-68
2023/01/29 03:05:57;;;;;;;1.15;1.10;;;-0.30;99.70;;;;;;5128654;27;20309;-68
2023/01/29 03:08:41;;;;;;;0.80;0.80;;;-0.40;99.40;;;;;;5115413;27;20197;-68
2023/01/29 03:11:12;;;;;;;0.40;0.40;;;-0.50;99.20;;;;;;5109170;28;20378;-67
2023/01/29 03:13:44;;;;;;;2.40;1.25;;;-0.50;99.30;;;;;;5125876;27;20640;-68
2023/01/29 03:16:19;;;;;;;1.45;0.55;;;-0.40;99.50;;;;;;5128854;27;20220;-68
2023/01/29 03:18:52;;;;;;;0.80;0.80;;;-0.40;99.40;;;;;;5128811;27;20197;-68
2023/01/29 03:32:37;;;;;;;2.33;1.27;;;-0.40;99.70;;;;;;5129106;27;20216;-67
2023/01/29 03:35:08;;;;;;;2.80;1.88;;;-0.40;99.50;;;;;;5129180;27;20200;-69
2023/01/29 03:37:40;;;;;;;0.65;0.65;;;-0.50;99.40;;;;;;5121407;27;20206;-68
2023/01/29 03:40:08;;;;;;;0.32;0.32;;;-0.50;99.70;;;;;;5121434;27;20193;-68
2023/01/29 03:42:51;;;;;;;1.90;1.80;;;-0.50;99.70;;;;;;5128765;27;20315;-68
2023/01/29 03:45:27;;;;;;;2.88;2.58;;;-0.50;99.60;;;;;;5128955;27;20201;-68
2023/01/29 03:48:07;;;;;;;6.07;2.25;;;-0.40;99.70;;;;;;5124272;27;20185;-67
2023/01/29 03:50:41;;;;;;;1.70;1.02;;;-0.30;99.50;;;;;;5128532;27;20301;-68
2023/01/29 03:53:18;;;;;;;1.48;1.25;;;-0.40;99.10;;;;;;5128907;27;20661;-68
2023/01/29 03:55:57;;;;;;;1.83;1.73;;;-0.40;99.30;;;;;;5128769;27;20217;-69
2023/01/29 03:58:34;;;;;;;0.80;0.80;;;-0.40;99.30;;;;;;5114028;27;20558;-68
2023/01/29 04:01:06;;;;;;;0.60;0.60;;;-0.30;99.40;;;;;;5128106;27;20221;-68
2023/01/29 04:03:37;;;;;;;1.55;1.45;;;-0.20;99.40;;;;;;5127701;27;20193;-69
2023/01/29 04:06:09;;;;;;;1.08;1.00;;;-0.20;99.90;;;;;;5128408;27;20748;-68
2023/01/29 04:08:43;;;;;;;0.80;0.80;;;-0.30;99.10;;;;;;5127954;27;20719;-68
2023/01/29 04:11:16;;;;;;;0.73;0.73;;;-0.30;99.30;;;;;;5128379;27;20225;-68
2023/01/29 04:13:45;;;;;;;1.38;0.70;;;-0.30;99.50;;;;;;5128236;27;20636;-68
2023/01/29 04:16:16;;;;;;;0.63;0.63;;;-0.40;99.30;;;;;;5128074;27;20270;-68
2023/01/29 04:18:46;;;;;;;0.60;0.60;;;-0.50;99.20;;;;;;5129055;27;20189;-68
2023/01/29 04:21:14;;;;;;;1.02;0.63;;;-0.40;99.60;;;;;;5127753;27;20216;-67
2023/01/29 04:23:41;;;;;;;0.50;0.50;;;-0.30;99.70;;;;;;5128600;27;20531;-68
2023/01/29 04:26:32;;;;;;;1.58;1.10;;;-0.30;99.50;;;;;;5128163;27;20295;-67
2023/01/29 04:29:15;;;;;;;0.93;0.93;;;-0.20;99.50;;;;;;5128357;27;20289;-68
2023/01/29 04:31:47;;;;;;;0.88;0.57;;;-0.20;99.20;;;;;;5127559;27;20717;-67
2023/01/29 04:34:23;;;;;;;0.40;0.40;;;-0.20;99.30;;;;;;5128545;27;20305;-68
2023/01/29 04:37:02;;;;;;;0.88;0.88;;;-0.20;99.30;;;;;;5126096;27;20224;-68
2023/01/29 04:39:37;;;;;;;5.07;1.13;;;-0.20;99.40;;;;;;5119959;28;20194;-69
2023/01/29 04:42:13;;;;;;;0.95;0.95;;;-0.40;99.90;;;;;;5120450;27;20217;-68
2023/01/29 04:44:44;;;;;;;0.50;0.50;;;-0.40;99.50;;;;;;5128640;27;20200;-67
2023/01/29 04:47:19;;;;;;;0.52;0.50;;;-0.30;99.50;;;;;;5127221;28;20880;-68
2023/01/29 04:49:53;;;;;;;2.65;2.55;;;-0.30;99.60;;;;;;5127938;28;20200;-67
2023/01/29 04:52:28;;;;;;;1.30;1.20;;;-0.20;99.60;;;;;;5127667;28;20696;-68
2023/01/29 04:55:03;;;;;;;0.60;0.60;;;-0.20;99.50;;;;;;5128477;28;20238;-67
2023/01/29 04:57:36;;;;;;;2.63;1.65;;;-0.30;99.70;;;;;;5127846;28;20291;-68
2023/01/29 05:00:08;;;;;;;0.88;0.88;;;-0.40;99.60;;;;;;5127907;28;20205;-68
2023/01/29 05:02:39;;;;;;;1.75;1.15;;;-0.40;99.70;;;;;;5127731;28;20193;-68
2023/01/29 05:05:10;;;;;;;0.93;0.90;;;0.40;99.90;;;;;;5127584;28;20209;-68
2023/01/29 05:07:38;;;;;;;0.75;0.75;;;-0.30;99.90;;;;;;5127362;28;20213;-68
2023/01/29 05:10:08;;;;;;;2.05;0.77;;;-0.20;99.50;;;;;;5127840;28;20201;-69
2023/01/29 05:12:36;;;;;;;0.77;0.77;;;-0.20;99.60;;;;;;5127823;28;20204;-68
2023/01/29 05:15:09;;;;;;;0.73;0.73;;;-0.30;99.70;;;;;;5129036;27;20228;-69
2023/01/29 05:17:36;;;;;;;0.93;0.93;;;-0.20;99.60;;;;;;5131072;27;20201;-68
2023/01/29 05:20:03;;;;;;;0.63;0.63;;;-0.10;99.20;;;;;;5131513;27;20185;-67
2023/01/29 05:22:31;;;;;;;2.90;1.90;;;-0.10;99.00;;;;;;5131943;27;20205;-68
2023/01/29 05:24:58;;;;;;;0.50;0.50;;;-0.20;98.90;;;;;;5131717;27;20225;-68
2023/01/29 05:30:16;;;;;;;2.63;2.42;;;-0.30;99.00;;;;;;5131303;27;20774;-68
2023/01/29 05:32:43;;;;;;;2.05;0.95;;;-0.30;99.10;;;;;;5131161;27;20635;-68
2023/01/29 05:35:09;;;;;;;1.23;1.13;;;-0.20;99.20;;;;;;5131560;27;20228;-69
2023/01/29 05:37:38;;;;;;;0.50;0.50;;;-0.20;99.10;;;;;;5130242;27;20208;-68
2023/01/29 05:40:08;;;;;;;2.15;2.05;;;-0.20;99.20;;;;;;5118120;27;20198;-69
2023/01/29 05:42:35;;;;;;;0.90;0.90;;;-0.20;99.20;;;;;;5128419;27;20750;-68
2023/01/29 05:45:01;;;;;;;1.20;1.20;;;-0.30;99.00;;;;;;5131742;27;20205;-68
2023/01/29 05:47:28;;;;;;;0.40;0.40;;;-0.40;99.20;;;;;;5131100;27;20209;-68
2023/01/29 05:49:55;;;;;;;2.60;1.80;;;-0.40;99.20;;;;;;5131391;27;20310;-68
2023/01/29 05:52:22;;;;;;;1.85;1.75;;;-0.50;99.20;;;;;;5131051;27;20229;-69
2023/01/29 05:54:50;;;;;;;0.90;0.65;;;-0.60;99.20;;;;;;5131270;27;20225;-68
2023/01/29 05:57:17;;;;;;;1.48;1.48;;;;;;;;;;5130518;27;20221;-69
2023/01/29 05:59:44;;;;;;;0.52;0.52;;;-0.50;99.20;;;;;;5130916;27;20224;-68
2023/01/29 06:02:10;;;;;;;1.52;1.27;;;-0.60;99.00;;;;;;5130332;27;20229;-68
2023/01/29 06:04:37;;;;;;;1.45;1.45;;;-0.50;99.20;;;;;;5131144;27;20190;-68
2023/01/29 06:07:04;;;;;;;1.13;1.02;;;-0.40;99.20;;;;;;5130899;27;20299;-68
2023/01/29 06:09:31;;;;;;;0.85;0.85;;;-0.40;99.10;;;;;;5130505;27;20655;-67
2023/01/29 06:11:59;;;;;;;1.35;1.05;;;-0.40;99.10;;;;;;5130800;27;20223;-69
2023/01/29 06:14:26;;;;;;;1.27;0.77;;;-0.40;99.10;;;;;;5130645;27;20229;-68
2023/01/29 06:16:52;;;;;;;1.60;1.50;;;-0.30;99.20;;;;;;5130138;27;20225;-68
2023/01/29 06:19:19;;;;;;;1.15;1.15;;;-0.50;98.90;;;;;;5131196;27;20208;-66
2023/01/29 06:21:46;;;;;;;4.03;1.77;;;-0.60;99.00;;;;;;5130672;27;20221;-68
2023/01/29 06:24:13;;;;;;;0.90;0.90;;;-0.40;99.30;;;;;;5130065;27;20194;-69
2023/01/29 06:26:40;;;;;;;1.25;1.15;;;-0.40;99.30;;;;;;5129196;27;20221;-67
2023/01/29 06:29:08;;;;;;;3.95;1.25;;;-0.60;99.90;;;;;;5130167;27;20193;-67
2023/01/29 06:31:35;;;;;;;3.65;2.17;;;-0.50;99.10;;;;;;5130862;27;20239;-67
2023/01/29 06:34:02;;;;;;;0.50;0.50;;;-0.50;99.00;;;;;;5130402;27;20571;-69
2023/01/29 06:36:29;;;;;;;0.63;0.47;;;-0.60;98.90;;;;;;5129908;27;20218;-68
2023/01/29 06:38:56;;;;;;;3.90;1.05;;;-0.60;99.90;;;;;;5114194;27;20189;-69
2023/01/29 06:41:24;;;;;;;1.88;1.38;;;-0.60;99.00;;;;;;5120261;27;20224;-68
2023/01/29 06:43:51;;;;;;;0.93;0.82;;;-0.50;99.00;;;;;;5112423;27;20210;-70
2023/01/29 06:46:19;;;;;;;1.45;1.35;;;-0.50;99.30;;;;;;5117031;27;20594;-68
2023/01/29 06:48:46;;;;;;;0.50;0.50;;;-0.50;99.30;;;;;;5129530;27;20204;-68
2023/01/29 06:51:13;;;;;;;2.53;1.40;;;-0.50;99.20;;;;;;5128740;27;20225;-68
2023/01/29 06:53:40;;;;;;;0.70;0.70;;;-0.40;99.10;;;;;;5128596;27;20859;-67
2023/01/29 06:56:07;;;;;;;0.70;0.70;;;-0.40;98.90;;;;;;5129182;27;20221;-67
2023/01/29 06:58:37;;;;;;;1.35;0.88;;;-0.60;99.90;;;;;;5129468;27;20735;-68
2023/01/29 07:01:05;;;;;;;2.00;1.45;;;-1.00;99.90;;;;;;5129743;27;20701;-68
2023/01/29 07:03:33;;;;;;;4.28;1.30;;;-1.00;99.90;;;;;;5130380;27;20205;-69
2023/01/29 07:06:00;;;;;;;1.42;1.35;;;-0.50;99.90;;;;;;5129359;27;20217;-69
2023/01/29 07:08:27;;;;;;;0.57;0.57;;;-0.60;99.10;;;;;;5129429;27;20197;-69
2023/01/29 07:10:58;;;;;;;1.20;0.73;;;-0.90;99.90;;;;;;5129417;27;20252;-70
2023/01/29 07:13:24;;;;;;;1.75;1.65;;;-0.50;98.90;;;;;;5125399;27;20199;-69
2023/01/29 07:15:51;;;;;;;0.70;0.70;;;-0.50;99.00;;;;;;5109065;28;20550;-69
2023/01/29 07:18:18;;;;;;;2.40;1.67;;;-0.50;99.00;;;;;;5109208;27;20198;-68
2023/01/29 07:20:46;;;;;;;1.38;1.35;;;-0.40;99.00;;;;;;5109006;28;20304;-69
2023/01/29 07:23:13;;;;;;;1.15;1.10;;;-0.50;98.90;;;;;;5109408;28;20226;-70
2023/01/29 07:25:40;;;;;;;1.67;1.15;;;-0.40;99.20;;;;;;5109070;28;20525;-69
2023/01/29 07:28:07;;;;;;;3.15;2.30;;;-0.40;99.20;;;;;;5122344;27;20195;-67
2023/01/29 07:30:34;;;;;;;1.67;1.52;;;-0.40;98.90;;;;;;5128747;27;20253;-68
2023/01/29 07:33:03;;;;;;;1.02;0.95;;;-0.30;99.90;;;;;;5128245;27;20201;-68
2023/01/29 07:35:29;;;;;;;1.45;1.45;;;-0.20;99.10;;;;;;5123019;27;20230;-68
2023/01/29 07:37:57;;;;;;;1.33;1.27;;;-0.60;99.90;;;;;;5117907;27;20682;-69
2023/01/29 07:40:24;;;;;;;2.50;1.38;;;-0.20;98.40;;;;;;5116837;27;20212;-69
2023/01/29 07:42:51;;;;;;;1.67;1.00;;;-0.10;98.80;;;;;;5119357;27;20202;-70
2023/01/29 07:45:18;;;;;;;0.45;0.45;;;-0.10;98.70;;;;;;5117836;27;20221;-69
2023/01/29 07:47:45;;;;;;;1.35;1.25;;;-0.20;98.30;;;;;;5119764;27;20213;-68
2023/01/29 07:50:12;;;;;;;4.30;1.60;;;-0.30;98.40;;;;;;5117418;27;20194;-69
2023/01/29 07:52:38;;;;;;;0.47;0.47;;;-0.20;98.80;;;;;;5109680;27;20541;-69
2023/01/29 07:55:07;;;;;;;1.08;1.08;;;-0.20;98.50;;;;;;5129263;27;20229;-69
2023/01/29 07:57:34;;;;;;;1.45;0.90;;;-0.10;98.40;;;;;;5119853;27;20194;-69
2023/01/29 08:00:01;;;;;;;0.68;0.68;;;-0.10;98.10;;;;;;5128103;27;20197;-69
2023/01/29 08:02:28;;;;;;;1.25;1.20;;;-0.20;98.20;;;;;;5123848;27;20407;-69
2023/01/29 08:04:54;;;;;;;3.00;2.78;;;-0.30;97.90;;;;;;5116756;27;20197;-68
2023/01/29 08:07:21;;;;;;;0.75;0.75;;;-0.30;98.30;;;;;;5118059;27;20754;-68
2023/01/29 08:09:48;;;;;;;1.20;0.93;;;-0.30;98.30;;;;;;5118727;27;20181;-69
2023/01/29 08:12:16;;;;;;;0.40;0.40;;;-0.40;98.30;;;;;;5119169;27;20224;-70
2023/01/29 08:14:44;;;;;;;0.85;0.85;;;-0.30;98.60;;;;;;5116244;27;20209;-69
2023/01/29 08:17:11;;;;;;;2.45;1.67;;;-0.40;98.50;;;;;;5118375;27;20213;-68
2023/01/29 08:19:38;;;;;;;0.70;0.70;;;-0.40;98.30;;;;;;5117781;27;20804;-69
2023/01/29 08:22:06;;;;;;;1.08;0.98;;;-0.40;98.50;;;;;;5117734;27;20221;-69
2023/01/29 08:24:33;;;;;;;0.60;0.60;;;-0.20;98.80;;;;;;5113281;27;20296;-70
2023/01/29 08:26:59;;;;;;;1.73;1.63;;;-0.20;98.60;;;;;;5111879;27;20228;-69
2023/01/29 08:29:28;;;;;;;1.95;1.77;;;-0.10;98.40;;;;;;5127115;27;20199;-69
2023/01/29 08:31:54;;;;;;;3.15;2.88;;;-0.10;97.90;;;;;;5125846;27;20679;-70
2023/01/29 08:34:21;;;;;;;3.33;2.47;;;0.00;98.00;;;;;;5108276;28;20232;-69
2023/01/29 08:36:48;;;;;;;2.47;2.17;;;0.10;98.30;;;;;;5118166;27;20229;-70
2023/01/29 08:39:15;;;;;;;0.40;0.40;;;-0.10;97.70;;;;;;5118504;27;20194;-67
2023/01/29 08:41:42;;;;;;;7.65;1.45;;;-0.10;97.90;;;;;;5117345;28;20221;-69
2023/01/29 08:44:09;;;;;;;3.05;1.85;;;0.00;97.80;;;;;;5117955;27;20208;-69
2023/01/29 08:46:39;;;;;;;2.10;1.15;;;0.00;97.80;;;;;;5116693;28;20267;-69
2023/01/29 08:49:07;;;;;;;2.42;2.22;;;0.10;98.00;;;;;;5119052;27;20190;-68
2023/01/29 08:51:33;;;;;;;2.08;1.08;;;0.00;97.20;;;;;;5122304;27;20602;-70
2023/01/29 08:54:00;;;;;;;1.25;0.90;;;0.10;97.70;;;;;;5123217;27;20189;-69
2023/01/29 08:56:27;;;;;;;1.40;1.40;;;0.10;99.90;;;;;;5125302;27;20236;-69
2023/01/29 08:58:54;;;;;;;0.93;0.93;;;0.10;97.40;;;;;;5133911;27;20201;-69
2023/01/29 09:01:20;;;;;;;2.10;1.90;;;0.10;97.10;;;;;;5127241;27;20220;-68
2023/01/29 09:03:49;;;;;;;1.55;1.48;;;0.10;97.00;;;;;;5124572;27;20208;-69
2023/01/29 09:06:16;;;;;;;0.82;0.82;;;0.10;97.10;;;;;;5123872;27;20675;-69
2023/01/29 09:08:43;;;;;;;3.22;0.80;;;-0.20;99.90;;;;;;5123566;27;20201;-68
2023/01/29 09:11:10;;;;;;;0.90;0.90;;;0.00;96.00;;;;;;5122647;27;20218;-69
2023/01/29 09:13:37;;;;;;;7.22;2.80;;;0.10;96.40;;;;;;5123790;27;20209;-69
2023/01/29 09:16:04;;;;;;;1.05;0.95;;;0.10;96.60;;;;;;5122086;27;20300;-69
2023/01/29 09:18:31;;;;;;;0.65;0.65;;;0.20;96.20;;;;;;5118689;27;20199;-69
2023/01/29 09:21:01;;;;;;;0.88;0.88;;;0.20;96.20;;;;;;5126884;27;20213;-70
2023/01/29 09:23:28;;;;;;;1.25;1.15;;;0.40;96.10;;;;;;5126476;27;20232;-69
2023/01/29 09:25:56;;;;;;;0.50;0.50;;;0.40;96.30;;;;;;5132729;27;20591;-69
2023/01/29 09:28:23;;;;;;;0.50;0.50;;;0.30;96.10;;;;;;5133846;27;20203;-69
2023/01/29 09:30:50;;;;;;;0.57;0.57;;;0.40;96.10;;;;;;5132840;27;20221;-69
2023/01/29 09:33:17;;;;;;;0.82;0.82;;;0.30;95.80;;;;;;5115186;27;20202;-69
2023/01/29 09:35:45;;;;;;;1.13;1.13;;;0.30;95.80;;;;;;5113641;27;20229;-69
2023/01/29 09:38:14;;;;;;;3.05;1.48;;;0.30;95.80;;;;;;5126916;27;20232;-69
2023/01/29 09:40:50;;;;;;;2.00;1.88;;;0.30;95.80;;;;;;5132227;27;20221;-69
2023/01/29 09:43:21;;;;;;;1.85;1.75;;;0.40;96.30;;;;;;5132395;27;20200;-69
2023/01/29 09:45:54;;;;;;;1.35;0.93;;;0.40;96.10;;;;;;5134261;27;20328;-68
2023/01/29 09:48:26;;;;;;;0.95;0.95;;;0.30;95.80;;;;;;5133388;27;20201;-69
2023/01/29 09:50:55;;;;;;;1.50;1.27;;;0.10;95.40;;;;;;5134338;27;20228;-68
2023/01/29 09:53:29;;;;;;;1.67;1.60;;;0.20;95.60;;;;;;5123782;27;20197;-69
2023/01/29 09:56:01;;;;;;;1.75;1.33;;;0.30;95.10;;;;;;5133768;27;20228;-69
2023/01/29 09:58:31;;;;;;;2.35;2.15;;;0.40;95.60;;;;;;5133471;27;20295;-68
2023/01/29 10:01:07;;;;;;;1.40;1.30;;;0.70;95.70;;;;;;5132055;27;20217;-69
2023/01/29 10:03:57;;;;;;;3.90;1.45;;;0.80;95.30;;;;;;5130515;27;20205;-69
2023/01/29 10:06:39;;;;;;;0.80;0.75;;;0.70;95.00;;;;;;5130794;27;20244;-69
2023/01/29 10:09:43;;;;;;;2.67;1.05;;;0.70;95.50;;;;;;5130102;27;20201;-70
2023/01/29 10:12:21;;;;;;;2.00;1.80;;;0.80;95.50;;;;;;5128475;27;20223;-69
2023/01/29 10:14:59;;;;;;;3.45;1.70;;;0.90;95.20;;;;;;5110534;28;20225;-68
2023/01/29 10:17:58;;;;;;;3.10;2.88;;;1.00;95.00;;;;;;5118306;27;20223;-69
2023/01/29 10:20:41;;;;;;;3.88;2.15;;;1.20;95.50;;;;;;5129089;27;20229;-69
2023/01/29 10:23:21;;;;;;;2.92;1.30;;;1.40;95.20;;;;;;5116582;27;20678;-69
2023/01/29 10:25:51;;;;;;;1.45;1.27;;;1.40;94.90;;;;;;5130191;27;20329;-69
2023/01/29 10:28:22;;;;;;;2.13;1.75;;;1.40;94.70;;;;;;5129818;27;20201;-69
2023/01/29 10:30:51;;;;;;;0.98;0.98;;;1.50;94.00;;;;;;5130420;27;20260;-69
2023/01/29 10:33:23;;;;;;;1.98;1.13;;;1.40;94.50;;;;;;5130415;27;20208;-68
2023/01/29 10:35:54;;;;;;;4.30;2.20;;;1.50;94.70;;;;;;5130241;27;20232;-67
2023/01/29 10:38:34;;;;;;;2.85;1.63;;;1.50;94.90;;;;;;5115731;27;20202;-69
2023/01/29 10:41:13;;;;;;;1.98;0.93;;;1.60;94.50;;;;;;5124458;27;20223;-69
2023/01/29 10:43:51;;;;;;;1.77;1.23;;;1.60;94.50;;;;;;5130740;27;20193;-69
2023/01/29 10:46:27;;;;;;;1.63;1.52;;;1.80;94.60;;;;;;5130410;27;20224;-69
2023/01/29 10:49:06;;;;;;;1.20;1.13;;;2.10;99.90;;;;;;5129675;27;20204;-68
2023/01/29 10:51:48;;;;;;;1.60;1.50;;;1.80;94.40;;;;;;5130704;27;20221;-68
2023/01/29 10:54:35;;;;;;;1.30;1.27;;;2.00;94.00;;;;;;5130525;27;20544;-67
2023/01/29 10:57:13;;;;;;;6.93;1.45;;;1.90;93.60;;;;;;5129287;27;20582;-69
2023/01/29 10:59:53;;;;;;;1.30;1.23;;;2.00;93.90;;;;;;5129706;27;20605;-68
2023/01/29 11:02:21;;;;;;;1.95;1.25;;;2.00;93.80;;;;;;5130134;27;20213;-69
2023/01/29 11:04:48;;;;;;;1.23;1.23;;;2.00;93.90;;;;;;5130455;27;20201;-70
2023/01/29 11:07:18;;;;;;;2.17;1.40;;;2.00;93.60;;;;;;5129259;27;20213;-69
2023/01/29 11:09:53;;;;;;;4.82;1.77;;;1.70;99.90;;;;;;5128677;27;20198;-70
2023/01/29 11:12:29;;;;;;;1.42;1.13;;;1.80;94.00;;;;;;5129418;27;20694;-69
2023/01/29 11:15:00;;;;;;;2.60;0.73;;;1.60;92.90;;;;;;5130084;27;20720;-68
2023/01/29 11:17:27;;;;;;;1.73;1.63;;;1.70;93.40;;;;;;5129255;27;20221;-68
2023/01/29 11:19:55;;;;;;;2.88;1.80;;;1.70;99.90;;;;;;5128871;27;20216;-69
2023/01/29 11:22:23;;;;;;;0.60;0.60;;;1.80;94.00;;;;;;5129560;27;20218;-70
2023/01/29 11:25:09;;;;;;;0.93;0.60;;;1.90;93.90;;;;;;5129953;27;20193;-70
2023/01/29 11:27:43;;;;;;;3.10;2.50;;;1.70;93.00;;;;;;5128428;27;20200;-69
2023/01/29 11:30:18;;;;;;;0.82;0.80;;;1.70;93.40;;;;;;5128473;27;20213;-69
2023/01/29 11:32:49;;;;;;;1.45;1.00;;;1.60;93.50;;;;;;5129430;27;20669;-68
2023/01/29 11:35:24;;;;;;;1.02;0.85;;;1.30;93.10;;;;;;5129741;27;20224;-69
2023/01/29 11:37:51;;;;;;;1.55;1.42;;;1.30;93.50;;;;;;5126764;27;20301;-71
2023/01/29 11:40:40;;;;;;;2.00;1.58;;;1.50;94.10;;;;;;5113950;27;20198;-70
2023/01/29 11:43:23;;;;;;;1.20;1.15;;;1.50;93.30;;;;;;5116436;27;20202;-68
2023/01/29 11:45:53;;;;;;;2.05;1.88;;;1.50;93.20;;;;;;5108817;28;20652;-69
2023/01/29 11:48:22;;;;;;;3.85;2.45;;;1.60;92.90;;;;;;5124421;27;20199;-70
2023/01/29 11:50:54;;;;;;;2.35;2.22;;;1.60;93.30;;;;;;5128686;27;20219;-68
2023/01/29 11:53:32;;;;;;;0.80;0.77;;;1.50;93.70;;;;;;5110315;27;20198;-68
2023/01/29 11:55:59;;;;;;;2.38;1.58;;;1.60;94.30;;;;;;5113465;27;20228;-69
2023/01/29 11:58:30;;;;;;;0.88;0.88;;;1.60;93.80;;;;;;5128362;27;20204;-69
2023/01/29 12:00:58;;;;;;;1.52;1.42;;;1.80;94.00;;;;;;5129100;27;20557;-69
2023/01/29 12:03:34;;;;;;;1.65;1.30;;;1.90;94.20;;;;;;5128424;27;20194;-69
2023/01/29 12:06:04;;;;;;;0.75;0.73;;;1.80;93.60;;;;;;5128737;27;20577;-69
2023/01/29 12:08:36;;;;;;;1.20;1.10;;;1.80;93.40;;;;;;5128201;27;20693;-69
2023/01/29 12:11:11;;;;;;;1.55;1.45;;;1.80;93.00;;;;;;5128329;27;20256;-69
2023/01/29 12:13:42;;;;;;;2.70;1.20;;;1.80;93.60;;;;;;5128757;27;20207;-69
2023/01/29 12:16:24;;;;;;;1.25;0.85;;;1.90;93.50;;;;;;5127839;27;20244;-69
2023/01/29 12:18:56;;;;;;;3.75;3.45;;;1.90;94.00;;;;;;5128098;27;20197;-71
2023/01/29 12:21:30;;;;;;;1.40;0.85;;;2.10;94.30;;;;;;5128593;27;20232;-69
2023/01/29 12:24:03;;;;;;;0.52;0.52;;;2.20;93.70;;;;;;5127920;27;20203;-70
2023/01/29 12:26:33;;;;;;;2.25;2.13;;;2.40;93.40;;;;;;5126425;27;20729;-69
2023/01/29 12:29:20;;;;;;;1.52;1.42;;;2.40;93.20;;;;;;5107763;28;20202;-69
2023/01/29 12:31:53;;;;;;;1.52;1.42;;;2.30;93.10;;;;;;5121870;27;20224;-70
2023/01/29 12:34:27;;;;;;;0.98;0.98;;;2.30;93.10;;;;;;5128550;27;20198;-69
2023/01/29 12:37:01;;;;;;;2.83;1.33;;;2.30;93.30;;;;;;5127282;27;20247;-70
2023/01/29 12:39:28;;;;;;;1.38;0.65;;;2.50;93.10;;;;;;5114492;27;20195;-70
2023/01/29 12:41:59;;;;;;;1.17;1.10;;;2.30;93.20;;;;;;5111655;27;20282;-69
2023/01/29 12:44:35;;;;;;;1.85;1.48;;;2.40;93.30;;;;;;5108530;28;20217;-67
2023/01/29 12:47:07;;;;;;;8.00;2.85;;;2.30;92.50;;;;;;5113098;28;20224;-69
2023/01/29 12:49:37;;;;;;;2.30;2.20;;;2.20;92.60;;;;;;5127483;28;20205;-69
2023/01/29 12:52:10;;;;;;;0.40;0.40;;;2.20;93.10;;;;;;5127161;28;20678;-69
2023/01/29 12:54:40;;;;;;;3.58;2.58;;;2.10;92.70;;;;;;5128276;28;20201;-69
2023/01/29 12:57:17;;;;;;;1.60;1.40;;;2.00;92.90;;;;;;5127436;28;20235;-69
2023/01/29 12:59:49;;;;;;;1.50;1.02;;;2.20;93.10;;;;;;5127438;28;20201;-68
2023/01/29 13:02:29;;;;;;;4.88;2.75;;;2.30;93.80;;;;;;5112916;28;20217;-69
2023/01/29 13:04:59;;;;;;;0.80;0.77;;;2.40;93.20;;;;;;5128139;28;20917;-69
2023/01/29 13:07:31;;;;;;;0.30;0.28;;;2.50;93.30;;;;;;5128262;28;20532;-69
2023/01/29 13:10:04;;;;;;;1.80;1.15;;;2.60;92.90;;;;;;5127598;28;20198;-69
2023/01/29 13:12:33;;;;;;;0.82;0.73;;;3.30;96.30;;;;;;5127202;28;20201;-69
2023/01/29 13:15:06;;;;;;;3.03;1.38;;;2.60;92.20;;;;;;5128249;28;20233;-70
2023/01/29 13:17:37;;;;;;;2.13;1.80;;;2.50;91.70;;;;;;5127645;28;20221;-69
2023/01/29 13:20:12;;;;;;;2.25;1.08;;;2.50;92.10;;;;;;5127165;28;20209;-69
2023/01/29 13:22:43;;;;;;;1.63;1.48;;;2.60;92.20;;;;;;5126555;28;20669;-69
2023/01/29 13:25:15;;;;;;;11.43;1.15;;;2.80;92.60;;;;;;5126294;28;20203;-69
2023/01/29 13:27:44;;;;;;;2.03;1.83;;;2.70;92.30;;;;;;5124580;28;20194;-69
2023/01/29 13:30:25;;;;;;;3.22;2.33;;;2.80;92.70;;;;;;5126180;28;20286;-69
2023/01/29 13:32:53;;;;;;;0.65;0.60;;;2.80;91.80;;;;;;5126978;28;20516;-69
2023/01/29 13:35:23;;;;;;;3.53;0.85;;;2.80;92.40;;;;;;5126855;27;20274;-69
2023/01/29 13:37:52;;;;;;;0.70;0.60;;;2.80;92.80;;;;;;5129038;27;20204;-68
2023/01/29 13:40:23;;;;;;;3.95;1.58;;;2.70;92.50;;;;;;5127342;27;20543;-68
2023/01/29 13:42:52;;;;;;;0.98;0.98;;;2.40;91.10;;;;;;5117580;27;20660;-70